createdAt,value
2017-02-21T00:00:05.196Z,36.25
2017-02-21T00:00:45.847Z,36.45
2017-02-21T00:01:26.488Z,36.25
2017-02-21T00:02:07.123Z,35.97
2017-02-21T00:02:47.756Z,35.87
2017-02-21T00:03:28.442Z,35.97
2017-02-21T00:04:09.159Z,35.99
2017-02-21T00:04:49.800Z,36.45
2017-02-21T00:05:30.468Z,36.37
2017-02-21T00:06:11.100Z,36.07
2017-02-21T00:06:51.735Z,36.35
2017-02-21T00:07:32.386Z,36.25
2017-02-21T00:08:13.131Z,36.07
2017-02-21T00:08:53.765Z,35.99
2017-02-21T00:09:34.423Z,36.35
2017-02-21T00:10:15.132Z,36.64
2017-02-21T00:10:55.830Z,36.37
2017-02-21T00:11:36.475Z,36.35
2017-02-21T00:12:17.158Z,36.37
2017-02-21T00:12:57.788Z,36.25
2017-02-21T00:13:38.418Z,36.25
2017-02-21T00:14:19.141Z,36.35
2017-02-21T00:14:59.800Z,36.25
2017-02-21T00:15:40.442Z,36.16
2017-02-21T00:16:21.073Z,36.16
2017-02-21T00:17:01.722Z,36.45
2017-02-21T00:17:42.362Z,36.64
2017-02-21T00:18:23.042Z,36.45
2017-02-21T00:19:03.674Z,36.45
2017-02-21T00:19:44.311Z,36.45
2017-02-21T00:20:25.003Z,36.45
2017-02-21T00:21:05.727Z,36.35
2017-02-21T00:21:46.381Z,36.35
2017-02-21T00:22:27.023Z,36.54
2017-02-21T00:23:07.653Z,36.64
2017-02-21T00:23:48.287Z,36.45
2017-02-21T00:24:28.939Z,36.35
2017-02-21T00:25:09.598Z,36.35
2017-02-21T00:25:50.273Z,36.45
2017-02-21T00:26:30.907Z,36.64
2017-02-21T00:27:11.591Z,36.54
2017-02-21T00:27:52.224Z,36.35
2017-02-21T00:28:32.857Z,36.45
2017-02-21T00:29:13.603Z,36.45
2017-02-21T00:29:54.236Z,37.02
2017-02-21T00:30:34.858Z,37.12
2017-02-21T00:31:15.547Z,37.02
2017-02-21T00:31:56.213Z,36.74
2017-02-21T00:32:36.868Z,36.83
2017-02-21T00:33:17.528Z,36.74
2017-02-21T00:33:58.253Z,37.02
2017-02-21T00:34:38.890Z,36.93
2017-02-21T00:35:19.545Z,36.83
2017-02-21T00:36:00.261Z,36.45
2017-02-21T00:36:40.890Z,36.54
2017-02-21T00:37:21.517Z,36.54
2017-02-21T00:38:02.157Z,36.54
2017-02-21T00:38:42.852Z,36.64
2017-02-21T00:39:23.490Z,36.54
2017-02-21T00:40:04.139Z,36.45
2017-02-21T00:40:44.815Z,36.54
2017-02-21T00:41:25.448Z,36.45
2017-02-21T00:42:06.131Z,36.64
2017-02-21T00:42:46.842Z,36.54
2017-02-21T00:43:27.483Z,36.45
2017-02-21T00:44:08.108Z,36.83
2017-02-21T00:44:48.833Z,36.54
2017-02-21T00:45:29.563Z,36.45
2017-02-21T00:46:10.205Z,36.54
2017-02-21T00:46:50.860Z,36.64
2017-02-21T00:47:31.543Z,36.64
2017-02-21T00:48:12.174Z,36.45
2017-02-21T00:48:52.811Z,36.54
2017-02-21T00:49:33.540Z,36.64
2017-02-21T00:50:14.173Z,36.54
2017-02-21T00:50:54.820Z,36.83
2017-02-21T00:51:35.497Z,36.93
2017-02-21T00:52:16.126Z,36.74
2017-02-21T00:52:56.763Z,37.12
2017-02-21T00:53:37.421Z,37.12
2017-02-21T00:54:18.044Z,37.02
2017-02-21T00:54:58.682Z,36.83
2017-02-21T00:55:39.306Z,36.74
2017-02-21T00:56:19.937Z,36.93
2017-02-21T00:57:00.589Z,37.02
2017-02-21T00:57:41.227Z,36.93
2017-02-21T00:58:21.858Z,36.83
2017-02-21T00:59:03.441Z,37.22
2017-02-21T00:59:44.071Z,37.22
2017-02-21T01:00:24.701Z,37.32
2017-02-21T01:01:05.419Z,37.22
2017-02-21T01:01:46.042Z,37.22
2017-02-21T01:02:26.680Z,37.12
2017-02-21T01:03:07.430Z,37.32
2017-02-21T01:03:48.094Z,37.22
2017-02-21T01:04:28.731Z,37.22
2017-02-21T01:05:09.373Z,37.22
2017-02-21T01:05:50.067Z,37.41
2017-02-21T01:06:30.695Z,36.93
2017-02-21T01:07:11.321Z,36.93
2017-02-21T01:07:51.983Z,36.83
2017-02-21T01:08:32.665Z,36.83
2017-02-21T01:09:13.310Z,36.74
2017-02-21T01:09:53.976Z,36.83
2017-02-21T01:10:34.610Z,36.64
2017-02-21T01:11:15.236Z,36.74
2017-02-21T01:11:55.903Z,36.45
2017-02-21T01:12:36.569Z,36.74
2017-02-21T01:13:17.191Z,36.25
2017-02-21T01:13:57.886Z,36.45
2017-02-21T01:14:38.517Z,36.64
2017-02-21T01:15:19.148Z,36.45
2017-02-21T01:15:59.798Z,36.54
2017-02-21T01:16:40.437Z,36.45
2017-02-21T01:17:21.067Z,36.25
2017-02-21T01:18:01.720Z,36.25
2017-02-21T01:18:42.357Z,36.07
2017-02-21T01:19:22.982Z,36.45
2017-02-21T01:20:03.652Z,36.35
2017-02-21T01:20:44.409Z,35.77
2017-02-21T01:21:25.044Z,35.97
2017-02-21T01:22:05.675Z,36.16
2017-02-21T01:22:46.402Z,36.25
2017-02-21T01:23:27.063Z,35.87
2017-02-21T01:24:07.694Z,35.87
2017-02-21T01:24:48.402Z,35.77
2017-02-21T01:25:29.036Z,35.87
2017-02-21T01:26:09.679Z,35.77
2017-02-21T01:26:50.326Z,35.68
2017-02-21T01:27:30.961Z,35.68
2017-02-21T01:28:11.592Z,35.77
2017-02-21T01:28:52.229Z,35.68
2017-02-21T01:29:32.885Z,35.87
2017-02-21T01:30:13.514Z,35.68
2017-02-21T01:30:54.207Z,35.49
2017-02-21T01:31:34.837Z,35.49
2017-02-21T01:32:15.470Z,35.58
2017-02-21T01:32:56.169Z,35.58
2017-02-21T01:33:36.904Z,35.49
2017-02-21T01:34:17.533Z,35.87
2017-02-21T01:34:58.187Z,35.68
2017-02-21T01:35:38.843Z,35.68
2017-02-21T01:36:19.470Z,35.49
2017-02-21T01:37:00.126Z,35.49
2017-02-21T01:37:40.833Z,35.77
2017-02-21T01:38:21.506Z,35.68
2017-02-21T01:39:02.137Z,35.58
2017-02-21T01:39:42.790Z,35.49
2017-02-21T01:40:23.426Z,35.77
2017-02-21T01:41:04.063Z,35.68
2017-02-21T01:41:44.724Z,35.77
2017-02-21T01:42:25.389Z,35.58
2017-02-21T01:43:06.015Z,35.49
2017-02-21T01:43:46.725Z,35.49
2017-02-21T01:44:27.399Z,35.58
2017-02-21T01:45:08.025Z,35.68
2017-02-21T01:45:48.671Z,35.58
2017-02-21T01:46:29.303Z,35.68
2017-02-21T01:47:09.929Z,35.58
2017-02-21T01:47:50.612Z,35.49
2017-02-21T01:48:31.261Z,35.49
2017-02-21T01:49:11.893Z,35.58
2017-02-21T01:49:52.600Z,35.68
2017-02-21T01:50:33.226Z,35.97
2017-02-21T01:51:13.884Z,35.97
2017-02-21T01:51:54.513Z,35.97
2017-02-21T01:52:35.151Z,35.97
2017-02-21T01:53:15.792Z,35.77
2017-02-21T01:53:56.488Z,35.87
2017-02-21T01:54:37.197Z,35.68
2017-02-21T01:55:17.856Z,35.97
2017-02-21T01:55:58.506Z,35.97
2017-02-21T01:56:39.160Z,35.77
2017-02-21T01:57:19.785Z,35.77
2017-02-21T01:58:00.421Z,35.49
2017-02-21T01:58:41.103Z,35.49
2017-02-21T01:59:21.758Z,35.49
2017-02-21T02:00:02.402Z,35.58
2017-02-21T02:00:43.082Z,35.58
2017-02-21T02:01:23.707Z,35.68
2017-02-21T02:02:04.334Z,35.77
2017-02-21T02:02:45.038Z,35.58
2017-02-21T02:03:25.666Z,35.39
2017-02-21T02:04:06.296Z,35.49
2017-02-21T02:04:46.929Z,35.49
2017-02-21T02:05:27.558Z,35.49
2017-02-21T02:06:08.185Z,35.39
2017-02-21T02:06:48.829Z,35.49
2017-02-21T02:07:29.470Z,35.39
2017-02-21T02:08:10.100Z,35.39
2017-02-21T02:08:50.800Z,35.1
2017-02-21T02:09:31.471Z,35.2
2017-02-21T02:10:12.101Z,35.2
2017-02-21T02:10:52.819Z,35.3
2017-02-21T02:11:33.446Z,35.2
2017-02-21T02:12:14.093Z,35.3
2017-02-21T02:12:54.828Z,35.39
2017-02-21T02:13:35.524Z,35.39
2017-02-21T02:14:16.151Z,35.49
2017-02-21T02:14:56.788Z,35.39
2017-02-21T02:15:37.414Z,35.2
2017-02-21T02:16:18.072Z,35.2
2017-02-21T02:16:58.706Z,35.39
2017-02-21T02:17:39.363Z,35
2017-02-21T02:18:20.025Z,35
2017-02-21T02:19:00.651Z,35.2
2017-02-21T02:19:41.373Z,35
2017-02-21T02:20:22.144Z,35.1
2017-02-21T02:21:02.779Z,35
2017-02-21T02:21:43.417Z,35.08
2017-02-21T02:22:24.043Z,35.1
2017-02-21T02:23:04.681Z,35.1
2017-02-21T02:23:45.378Z,35.1
2017-02-21T02:24:26.075Z,35
2017-02-21T02:25:06.803Z,35.3
2017-02-21T02:25:47.446Z,35.28
2017-02-21T02:26:28.085Z,35.3
2017-02-21T02:27:08.752Z,35.2
2017-02-21T02:27:49.403Z,35.2
2017-02-21T02:28:30.057Z,35.1
2017-02-21T02:29:10.822Z,35.2
2017-02-21T02:29:51.460Z,35.3
2017-02-21T02:30:32.097Z,35.39
2017-02-21T02:31:12.801Z,35.39
2017-02-21T02:31:53.431Z,35.1
2017-02-21T02:32:34.071Z,35.1
2017-02-21T02:33:14.718Z,35.3
2017-02-21T02:33:55.352Z,35.2
2017-02-21T02:34:35.982Z,35.2
2017-02-21T02:35:16.659Z,35.2
2017-02-21T02:35:57.290Z,35.1
2017-02-21T02:36:37.942Z,35.2
2017-02-21T02:37:18.617Z,35.2
2017-02-21T02:37:59.344Z,35.2
2017-02-21T02:38:39.988Z,35.39
2017-02-21T02:39:20.717Z,35.1
2017-02-21T02:40:01.350Z,35.2
2017-02-21T02:40:41.977Z,34.91
2017-02-21T02:41:22.635Z,34.91
2017-02-21T02:42:03.271Z,35.18
2017-02-21T02:42:43.891Z,35.1
2017-02-21T02:43:24.557Z,35
2017-02-21T02:44:05.187Z,35.08
2017-02-21T02:44:45.819Z,35
2017-02-21T02:45:26.487Z,35
2017-02-21T02:46:07.135Z,35
2017-02-21T02:46:47.790Z,35.1
2017-02-21T02:47:28.446Z,34.99
2017-02-21T02:48:09.086Z,34.91
2017-02-21T02:48:49.712Z,35.2
2017-02-21T02:49:30.392Z,35
2017-02-21T02:50:11.095Z,35.2
2017-02-21T02:50:51.723Z,35
2017-02-21T02:51:32.353Z,35
2017-02-21T02:52:13.009Z,35.08
2017-02-21T02:52:53.780Z,35.1
2017-02-21T02:53:34.422Z,35.2
2017-02-21T02:54:15.082Z,35.18
2017-02-21T02:54:55.719Z,35.2
2017-02-21T02:55:36.359Z,35.39
2017-02-21T02:56:17.004Z,35.1
2017-02-21T02:56:57.653Z,35.18
2017-02-21T02:57:38.279Z,35.39
2017-02-21T02:58:18.943Z,35.08
2017-02-21T02:58:59.692Z,35.18
2017-02-21T02:59:40.341Z,35.2
2017-02-21T03:00:20.983Z,35.3
2017-02-21T03:01:01.681Z,35.2
2017-02-21T03:01:42.395Z,35.3
2017-02-21T03:02:22.939Z,35.2
2017-02-21T03:03:03.595Z,35.3
2017-02-21T03:03:44.313Z,35.28
2017-02-21T03:04:24.855Z,35.49
2017-02-21T03:05:05.530Z,35.47
2017-02-21T03:05:46.168Z,35.47
2017-02-21T03:06:26.781Z,35.49
2017-02-21T03:07:07.410Z,35.49
2017-02-21T03:07:48.039Z,35.1
2017-02-21T03:08:28.664Z,35.39
2017-02-21T03:09:09.289Z,35.3
2017-02-21T03:09:49.928Z,35.39
2017-02-21T03:10:30.549Z,35.18
2017-02-21T03:11:11.182Z,35.08
2017-02-21T03:11:51.803Z,35.1
2017-02-21T03:12:32.447Z,35.2
2017-02-21T03:13:13.134Z,35.1
2017-02-21T03:13:53.769Z,34.8
2017-02-21T03:14:34.452Z,34.81
2017-02-21T03:15:15.098Z,34.99
2017-02-21T03:15:55.731Z,35.08
2017-02-21T03:16:36.383Z,35.08
2017-02-21T03:17:17.151Z,34.99
2017-02-21T03:17:57.799Z,35.08
2017-02-21T03:18:38.428Z,34.99
2017-02-21T03:19:19.131Z,35.28
2017-02-21T03:19:59.806Z,35.08
2017-02-21T03:20:40.439Z,35
2017-02-21T03:21:21.072Z,35
2017-02-21T03:22:01.727Z,35.08
2017-02-21T03:22:42.357Z,34.99
2017-02-21T03:23:23.027Z,34.99
2017-02-21T03:24:03.752Z,34.8
2017-02-21T03:24:44.385Z,35.1
2017-02-21T03:25:25.053Z,35.08
2017-02-21T03:26:05.689Z,34.89
2017-02-21T03:26:46.318Z,35.2
2017-02-21T03:27:26.952Z,34.99
2017-02-21T03:28:07.581Z,35.18
2017-02-21T03:28:48.212Z,34.99
2017-02-21T03:29:28.888Z,35.18
2017-02-21T03:30:09.613Z,35.3
2017-02-21T03:30:50.267Z,35.18
2017-02-21T03:31:30.908Z,35.18
2017-02-21T03:32:11.614Z,35.18
2017-02-21T03:32:52.239Z,35.18
2017-02-21T03:33:32.866Z,35.28
2017-02-21T03:34:13.571Z,35.2
2017-02-21T03:34:54.325Z,35.3
2017-02-21T03:35:34.952Z,35.08
2017-02-21T03:36:15.623Z,35.08
2017-02-21T03:36:56.341Z,34.99
2017-02-21T03:37:36.964Z,35
2017-02-21T03:38:17.599Z,35
2017-02-21T03:38:58.319Z,34.99
2017-02-21T03:39:38.970Z,35.18
2017-02-21T03:40:19.597Z,35.28
2017-02-21T03:41:00.287Z,35.08
2017-02-21T03:41:40.918Z,35.18
2017-02-21T03:42:21.561Z,35.18
2017-02-21T03:43:02.251Z,35.08
2017-02-21T03:43:43.000Z,35.57
2017-02-21T03:44:23.628Z,35.08
2017-02-21T03:45:04.294Z,35.18
2017-02-21T03:45:45.003Z,35.28
2017-02-21T03:46:25.749Z,35.3
2017-02-21T03:47:06.397Z,35.28
2017-02-21T03:47:47.875Z,34.99
2017-02-21T03:48:28.526Z,34.99
2017-02-21T03:49:09.150Z,35.28
2017-02-21T03:49:49.851Z,35.38
2017-02-21T03:50:30.505Z,35.08
2017-02-21T03:51:11.139Z,35.2
2017-02-21T03:51:51.825Z,35.28
2017-02-21T03:52:32.453Z,35.08
2017-02-21T03:53:13.103Z,35.18
2017-02-21T03:53:53.807Z,35.47
2017-02-21T03:54:34.441Z,35.38
2017-02-21T03:55:15.068Z,35.47
2017-02-21T03:55:55.728Z,35.39
2017-02-21T03:56:36.408Z,35.28
2017-02-21T03:57:17.033Z,35.08
2017-02-21T03:57:57.684Z,35.47
2017-02-21T03:58:38.428Z,35.18
2017-02-21T03:59:19.072Z,35.28
2017-02-21T03:59:59.767Z,35.28
2017-02-21T04:00:40.435Z,35.08
2017-02-21T04:01:21.065Z,35.18
2017-02-21T04:02:01.703Z,34.8
2017-02-21T04:02:42.358Z,34.61
2017-02-21T04:03:22.999Z,34.8
2017-02-21T04:04:03.656Z,34.61
2017-02-21T04:04:44.331Z,34.61
2017-02-21T04:05:24.966Z,34.61
2017-02-21T04:06:05.599Z,34.12
2017-02-21T04:06:46.257Z,34.31
2017-02-21T04:07:26.988Z,34.31
2017-02-21T04:08:07.622Z,34.31
2017-02-21T04:08:48.315Z,34.22
2017-02-21T04:09:28.951Z,34.41
2017-02-21T04:10:09.578Z,33.93
2017-02-21T04:10:50.276Z,34.03
2017-02-21T04:11:30.904Z,34.03
2017-02-21T04:12:11.539Z,34.03
2017-02-21T04:12:52.194Z,34.03
2017-02-21T04:13:32.840Z,34.22
2017-02-21T04:14:13.475Z,34.12
2017-02-21T04:14:54.179Z,34.03
2017-02-21T04:15:34.883Z,34.12
2017-02-21T04:16:15.587Z,33.93
2017-02-21T04:16:56.149Z,33.84
2017-02-21T04:17:36.834Z,33.84
2017-02-21T04:18:17.459Z,33.64
2017-02-21T04:18:58.107Z,33.45
2017-02-21T04:19:38.764Z,33.07
2017-02-21T04:20:19.399Z,33.26
2017-02-21T04:21:00.025Z,33.64
2017-02-21T04:21:40.686Z,32.97
2017-02-21T04:22:21.378Z,33.07
2017-02-21T04:23:02.031Z,33.07
2017-02-21T04:23:42.714Z,33.16
2017-02-21T04:24:23.445Z,33.07
2017-02-21T04:25:04.081Z,33.36
2017-02-21T04:25:44.711Z,33.36
2017-02-21T04:26:25.345Z,33.16
2017-02-21T04:27:05.982Z,32.97
2017-02-21T04:27:46.719Z,33.16
2017-02-21T04:28:27.355Z,33.45
2017-02-21T04:29:08.006Z,33.45
2017-02-21T04:29:48.629Z,33.07
2017-02-21T04:30:29.316Z,33.26
2017-02-21T04:31:09.939Z,33.16
2017-02-21T04:31:50.564Z,33.26
2017-02-21T04:32:31.269Z,33.26
2017-02-21T04:33:11.897Z,33.54
2017-02-21T04:33:52.523Z,33.45
2017-02-21T04:34:33.202Z,33.45
2017-02-21T04:35:13.833Z,33.36
2017-02-21T04:35:54.475Z,33.16
2017-02-21T04:36:35.104Z,33.45
2017-02-21T04:37:15.817Z,33.16
2017-02-21T04:37:56.461Z,33.07
2017-02-21T04:38:37.110Z,33.16
2017-02-21T04:39:17.832Z,32.97
2017-02-21T04:39:58.458Z,33.16
2017-02-21T04:40:39.145Z,33.07
2017-02-21T04:41:19.773Z,33.64
2017-02-21T04:42:00.402Z,33.64
2017-02-21T04:42:41.101Z,33.26
2017-02-21T04:43:21.732Z,33.16
2017-02-21T04:44:02.388Z,33.74
2017-02-21T04:44:43.040Z,33.74
2017-02-21T04:45:23.673Z,33.74
2017-02-21T04:46:04.316Z,33.64
2017-02-21T04:46:45.010Z,33.74
2017-02-21T04:47:25.677Z,34.03
2017-02-21T04:48:06.306Z,33.84
2017-02-21T04:48:46.936Z,33.93
2017-02-21T04:49:27.565Z,33.84
2017-02-21T04:50:08.193Z,34.03
2017-02-21T04:50:48.835Z,34.12
2017-02-21T04:51:29.496Z,34.22
2017-02-21T04:52:10.146Z,34.22
2017-02-21T04:52:50.758Z,34.03
2017-02-21T04:53:31.477Z,34.03
2017-02-21T04:54:12.114Z,34.03
2017-02-21T04:54:52.764Z,34.12
2017-02-21T04:55:33.386Z,34.12
2017-02-21T04:56:14.117Z,34.03
2017-02-21T04:56:54.774Z,34.22
2017-02-21T04:57:35.495Z,34.12
2017-02-21T04:58:16.200Z,33.64
2017-02-21T04:58:56.842Z,34.22
2017-02-21T04:59:37.528Z,34.12
2017-02-21T05:00:18.227Z,34.12
2017-02-21T05:00:58.880Z,33.74
2017-02-21T05:01:39.512Z,33.84
2017-02-21T05:02:20.152Z,33.93
2017-02-21T05:03:00.828Z,33.93
2017-02-21T05:03:41.486Z,33.84
2017-02-21T05:04:22.169Z,34.03
2017-02-21T05:05:02.954Z,34.03
2017-02-21T05:05:43.585Z,34.12
2017-02-21T05:06:24.323Z,33.93
2017-02-21T05:07:04.954Z,34.12
2017-02-21T05:07:45.629Z,33.84
2017-02-21T05:08:26.326Z,33.74
2017-02-21T05:09:06.986Z,33.93
2017-02-21T05:09:47.721Z,33.93
2017-02-21T05:10:28.349Z,33.74
2017-02-21T05:11:08.999Z,33.74
2017-02-21T05:11:49.703Z,33.84
2017-02-21T05:12:30.350Z,33.74
2017-02-21T05:13:10.976Z,33.74
2017-02-21T05:13:51.644Z,33.84
2017-02-21T05:14:32.274Z,33.16
2017-02-21T05:15:12.920Z,33.16
2017-02-21T05:15:53.655Z,33.45
2017-02-21T05:16:34.328Z,33.64
2017-02-21T05:17:14.972Z,33.36
2017-02-21T05:17:55.599Z,33.16
2017-02-21T05:18:36.231Z,33.36
2017-02-21T05:19:16.866Z,33.26
2017-02-21T05:19:57.523Z,33.54
2017-02-21T05:20:38.151Z,33.45
2017-02-21T05:21:18.790Z,32.97
2017-02-21T05:21:59.429Z,33.26
2017-02-21T05:22:40.112Z,33.26
2017-02-21T05:23:20.759Z,33.54
2017-02-21T05:24:01.411Z,33.45
2017-02-21T05:24:42.045Z,33.45
2017-02-21T05:25:22.670Z,33.36
2017-02-21T05:26:03.298Z,33.07
2017-02-21T05:26:43.996Z,33.26
2017-02-21T05:27:24.624Z,33.16
2017-02-21T05:28:05.268Z,33.36
2017-02-21T05:28:45.948Z,33.07
2017-02-21T05:29:26.577Z,33.07
2017-02-21T05:30:07.286Z,33.26
2017-02-21T05:30:47.993Z,33.36
2017-02-21T05:31:28.663Z,33.26
2017-02-21T05:32:09.271Z,33.26
2017-02-21T05:32:49.933Z,33.07
2017-02-21T05:33:30.584Z,33.16
2017-02-21T05:34:11.187Z,33.07
2017-02-21T05:34:51.913Z,32.87
2017-02-21T05:35:32.641Z,33.07
2017-02-21T05:36:13.291Z,32.97
2017-02-21T05:36:53.921Z,33.07
2017-02-21T05:37:34.557Z,32.87
2017-02-21T05:38:15.183Z,33.16
2017-02-21T05:38:55.820Z,32.97
2017-02-21T05:39:36.526Z,32.68
2017-02-21T05:40:17.173Z,32.87
2017-02-21T05:40:57.801Z,32.97
2017-02-21T05:41:38.535Z,32.97
2017-02-21T05:42:19.172Z,33.07
2017-02-21T05:42:59.802Z,32.87
2017-02-21T05:43:40.484Z,33.07
2017-02-21T05:44:21.113Z,33.07
2017-02-21T05:45:01.845Z,32.97
2017-02-21T05:45:42.483Z,33.26
2017-02-21T05:46:23.105Z,32.78
2017-02-21T05:47:03.738Z,32.97
2017-02-21T05:47:44.476Z,32.78
2017-02-21T05:48:25.181Z,32.78
2017-02-21T05:49:05.816Z,32.78
2017-02-21T05:49:46.438Z,32.78
2017-02-21T05:50:27.104Z,32.78
2017-02-21T05:51:07.735Z,32.68
2017-02-21T05:51:48.374Z,32.68
2017-02-21T05:52:29.037Z,32.78
2017-02-21T05:53:09.682Z,32.78
2017-02-21T05:53:50.334Z,32.78
2017-02-21T05:54:30.971Z,32.59
2017-02-21T05:55:11.600Z,32.1
2017-02-21T05:55:52.230Z,32.2
2017-02-21T05:56:32.879Z,32.59
2017-02-21T05:57:13.508Z,32.68
2017-02-21T05:57:54.145Z,32.68
2017-02-21T05:58:34.774Z,32.68
2017-02-21T05:59:15.409Z,32.68
2017-02-21T05:59:56.066Z,32.59
2017-02-21T06:00:36.701Z,32.59
2017-02-21T06:01:17.327Z,32.1
2017-02-21T06:01:58.030Z,32.01
2017-02-21T06:02:38.663Z,32.2
2017-02-21T06:03:19.295Z,32.1
2017-02-21T06:03:59.938Z,32.2
2017-02-21T06:04:40.564Z,32.2
2017-02-21T06:05:21.195Z,32.2
2017-02-21T06:06:01.870Z,32.1
2017-02-21T06:06:42.591Z,32.01
2017-02-21T06:07:23.220Z,32.1
2017-02-21T06:08:03.901Z,32.1
2017-02-21T06:08:44.564Z,32.1
2017-02-21T06:09:25.203Z,32.3
2017-02-21T06:10:05.828Z,32.01
2017-02-21T06:10:46.529Z,32.01
2017-02-21T06:11:27.207Z,32.2
2017-02-21T06:12:07.795Z,32.1
2017-02-21T06:12:48.442Z,32.1
2017-02-21T06:13:29.160Z,32.3
2017-02-21T06:14:09.707Z,32.3
2017-02-21T06:14:50.369Z,32.3
2017-02-21T06:15:30.995Z,32.01
2017-02-21T06:16:11.667Z,32.39
2017-02-21T06:16:52.344Z,32.39
2017-02-21T06:17:32.971Z,32.01
2017-02-21T06:18:13.604Z,32.2
2017-02-21T06:18:54.242Z,32.2
2017-02-21T06:19:34.926Z,32.1
2017-02-21T06:20:15.507Z,32.49
2017-02-21T06:20:56.214Z,32.1
2017-02-21T06:21:36.874Z,32.01
2017-02-21T06:22:17.503Z,32.2
2017-02-21T06:22:58.143Z,32.1
2017-02-21T06:23:38.798Z,31.92
2017-02-21T06:24:19.423Z,32.01
2017-02-21T06:25:00.138Z,31.92
2017-02-21T06:25:40.779Z,32.01
2017-02-21T06:26:21.406Z,32.3
2017-02-21T06:27:02.078Z,32.2
2017-02-21T06:27:42.710Z,32.01
2017-02-21T06:28:23.334Z,32.2
2017-02-21T06:29:03.970Z,32.1
2017-02-21T06:29:44.635Z,32.1
2017-02-21T06:30:25.258Z,32.1
2017-02-21T06:31:05.892Z,32.01
2017-02-21T06:31:46.531Z,32.1
2017-02-21T06:32:27.172Z,32.39
2017-02-21T06:33:07.883Z,32.39
2017-02-21T06:33:48.611Z,32.1
2017-02-21T06:34:29.260Z,32.3
2017-02-21T06:35:09.955Z,32.2
2017-02-21T06:35:50.647Z,32.01
2017-02-21T06:36:31.362Z,32.2
2017-02-21T06:37:12.021Z,32.1
2017-02-21T06:37:52.672Z,32.2
2017-02-21T06:38:33.431Z,32.1
2017-02-21T06:39:14.072Z,32.2
2017-02-21T06:39:54.769Z,32.1
2017-02-21T06:40:35.439Z,32.2
2017-02-21T06:41:16.177Z,32.2
2017-02-21T06:41:56.828Z,32.2
2017-02-21T06:42:37.459Z,32.1
2017-02-21T06:43:18.131Z,32.1
2017-02-21T06:43:58.754Z,32.1
2017-02-21T06:44:39.403Z,32.1
2017-02-21T06:45:20.031Z,32.01
2017-02-21T06:46:00.659Z,32.01
2017-02-21T06:46:41.300Z,32.01
2017-02-21T06:47:21.929Z,32.1
2017-02-21T06:48:02.562Z,32.39
2017-02-21T06:48:43.191Z,32.2
2017-02-21T06:49:23.822Z,32.2
2017-02-21T06:50:04.457Z,32.1
2017-02-21T06:50:45.206Z,32.2
2017-02-21T06:51:25.837Z,32.1
2017-02-21T06:52:06.473Z,32.1
2017-02-21T06:52:47.108Z,32.2
2017-02-21T06:53:27.743Z,32.1
2017-02-21T06:54:08.379Z,32.01
2017-02-21T06:54:49.033Z,32.1
2017-02-21T06:55:29.660Z,32.49
2017-02-21T06:56:10.299Z,32.68
2017-02-21T06:56:50.959Z,32.68
2017-02-21T06:57:31.703Z,32.59
2017-02-21T06:58:12.331Z,32.68
2017-02-21T06:58:53.016Z,32.68
2017-02-21T06:59:33.695Z,32.59
2017-02-21T07:00:14.325Z,32.59
2017-02-21T07:00:54.971Z,32.68
2017-02-21T07:01:35.660Z,32.39
2017-02-21T07:02:16.289Z,32.68
2017-02-21T07:02:56.928Z,32.68
2017-02-21T07:03:37.589Z,33.07
2017-02-21T07:04:18.233Z,32.59
2017-02-21T07:04:58.873Z,32.68
2017-02-21T07:05:39.526Z,32.68
2017-02-21T07:06:20.145Z,32.68
2017-02-21T07:07:00.781Z,32.68
2017-02-21T07:07:41.481Z,32.49
2017-02-21T07:08:22.190Z,32.49
2017-02-21T07:09:02.812Z,32.59
2017-02-21T07:09:43.460Z,32.68
2017-02-21T07:10:24.112Z,32.68
2017-02-21T07:11:04.765Z,32.68
2017-02-21T07:11:45.397Z,32.3
2017-02-21T07:12:26.153Z,32.3
2017-02-21T07:13:06.783Z,32.2
2017-02-21T07:13:48.075Z,32.2
2017-02-21T07:14:28.699Z,32.3
2017-02-21T07:15:09.333Z,32.87
2017-02-21T07:15:49.986Z,32.2
2017-02-21T07:16:30.617Z,32.2
2017-02-21T07:17:11.247Z,32.1
2017-02-21T07:17:51.920Z,32.59
2017-02-21T07:18:32.559Z,32.87
2017-02-21T07:19:13.202Z,32.59
2017-02-21T07:19:53.851Z,32.1
2017-02-21T07:20:34.475Z,32.49
2017-02-21T07:21:16.138Z,32.49
2017-02-21T07:21:56.762Z,32.2
2017-02-21T07:22:37.385Z,32.3
2017-02-21T07:23:18.110Z,32.39
2017-02-21T07:23:58.844Z,32.59
2017-02-21T07:24:39.546Z,32.97
2017-02-21T07:25:20.175Z,32.68
2017-02-21T07:26:00.816Z,32.3
2017-02-21T07:26:41.473Z,32.01
2017-02-21T07:27:22.108Z,32.2
2017-02-21T07:28:02.817Z,32.01
2017-02-21T07:28:43.464Z,32.01
2017-02-21T07:29:24.092Z,32.3
2017-02-21T07:30:04.737Z,32.01
2017-02-21T07:30:45.392Z,32.1
2017-02-21T07:31:26.022Z,32.01
2017-02-21T07:32:06.694Z,32.1
2017-02-21T07:32:47.360Z,32.01
2017-02-21T07:33:27.987Z,32.01
2017-02-21T07:34:08.701Z,32.2
2017-02-21T07:34:49.330Z,32.01
2017-02-21T07:35:29.962Z,32.01
2017-02-21T07:36:10.610Z,32.2
2017-02-21T07:36:51.246Z,32.01
2017-02-21T07:37:31.871Z,32.01
2017-02-21T07:38:12.567Z,32.2
2017-02-21T07:38:53.825Z,32.2
2017-02-21T07:39:34.490Z,32.01
2017-02-21T07:40:15.158Z,32.2
2017-02-21T07:40:55.857Z,32.2
2017-02-21T07:41:36.423Z,32.1
2017-02-21T07:42:17.122Z,32.18
2017-02-21T07:42:57.760Z,32.1
2017-02-21T07:43:38.392Z,32.1
2017-02-21T07:44:19.114Z,32.1
2017-02-21T07:44:59.754Z,32.1
2017-02-21T07:45:40.390Z,32.39
2017-02-21T07:46:21.041Z,32.49
2017-02-21T07:47:01.672Z,32.3
2017-02-21T07:47:42.310Z,32.39
2017-02-21T07:48:22.943Z,32.39
2017-02-21T07:49:03.580Z,32.39
2017-02-21T07:49:44.205Z,32.49
2017-02-21T07:50:24.897Z,32.68
2017-02-21T07:51:05.525Z,32.68
2017-02-21T07:51:46.149Z,32.49
2017-02-21T07:52:26.816Z,33.07
2017-02-21T07:53:07.453Z,32.68
2017-02-21T07:53:48.098Z,32.39
2017-02-21T07:54:28.790Z,32.3
2017-02-21T07:55:09.419Z,32.67
2017-02-21T07:55:50.043Z,32.78
2017-02-21T07:56:30.688Z,32.28
2017-02-21T07:57:11.317Z,32.39
2017-02-21T07:57:51.960Z,32.49
2017-02-21T07:58:32.653Z,32.78
2017-02-21T07:59:13.279Z,32.28
2017-02-21T07:59:53.919Z,32.59
2017-02-21T08:00:34.545Z,32.68
2017-02-21T08:01:15.184Z,32.68
2017-02-21T08:01:55.815Z,32.86
2017-02-21T08:02:36.442Z,32.68
2017-02-21T08:03:17.076Z,32.87
2017-02-21T08:03:57.709Z,32.97
2017-02-21T08:04:38.398Z,33.16
2017-02-21T08:05:19.074Z,32.87
2017-02-21T08:05:59.701Z,32.97
2017-02-21T08:06:40.373Z,32.78
2017-02-21T08:07:21.085Z,32.78
2017-02-21T08:08:01.714Z,32.78
2017-02-21T08:08:42.390Z,32.78
2017-02-21T08:09:23.101Z,32.57
2017-02-21T08:10:03.768Z,32.57
2017-02-21T08:10:44.418Z,32.2
2017-02-21T08:11:25.132Z,32.18
2017-02-21T08:12:05.877Z,32.68
2017-02-21T08:12:46.516Z,32.68
2017-02-21T08:13:27.187Z,32.67
2017-02-21T08:14:07.913Z,32.76
2017-02-21T08:14:48.554Z,32.68
2017-02-21T08:15:29.196Z,32.68
2017-02-21T08:16:09.850Z,32.67
2017-02-21T08:16:50.545Z,32.59
2017-02-21T08:17:31.198Z,32.78
2017-02-21T08:18:11.842Z,32.76
2017-02-21T08:18:52.542Z,32.87
2017-02-21T08:19:33.173Z,32.68
2017-02-21T08:20:13.819Z,32.68
2017-02-21T08:20:54.551Z,32.76
2017-02-21T08:21:35.181Z,32.28
2017-02-21T08:22:15.840Z,32.38
2017-02-21T08:22:56.478Z,32.18
2017-02-21T08:23:37.123Z,32.57
2017-02-21T08:24:17.772Z,32.28
2017-02-21T08:24:58.448Z,33.07
2017-02-21T08:25:39.122Z,32.76
2017-02-21T08:26:19.728Z,32.38
2017-02-21T08:27:00.415Z,32.78
2017-02-21T08:27:41.119Z,32.87
2017-02-21T08:28:21.680Z,32.67
2017-02-21T08:29:02.412Z,32.68
2017-02-21T08:29:43.075Z,32.78
2017-02-21T08:30:23.712Z,32.78
2017-02-21T08:31:04.360Z,32.78
2017-02-21T08:31:44.991Z,32.76
2017-02-21T08:32:25.624Z,32.39
2017-02-21T08:33:06.285Z,31.92
2017-02-21T08:33:46.923Z,32.38
2017-02-21T08:34:27.557Z,32.47
2017-02-21T08:35:08.278Z,32.01
2017-02-21T08:35:48.986Z,32.39
2017-02-21T08:36:29.619Z,32.09
2017-02-21T08:37:10.337Z,32.01
2017-02-21T08:37:50.975Z,32.09
2017-02-21T08:38:31.602Z,32.09
2017-02-21T08:39:12.234Z,32.18
2017-02-21T08:39:52.916Z,32.09
2017-02-21T08:40:33.601Z,32.09
2017-02-21T08:41:14.197Z,32.09
2017-02-21T08:41:54.870Z,32.09
2017-02-21T08:42:35.500Z,32.1
2017-02-21T08:43:16.130Z,32.09
2017-02-21T08:43:56.847Z,32.18
2017-02-21T08:44:37.481Z,32.09
2017-02-21T08:45:18.126Z,31.99
2017-02-21T08:45:58.781Z,32.38
2017-02-21T08:46:39.409Z,31.99
2017-02-21T08:47:20.038Z,32.18
2017-02-21T08:48:00.728Z,32.2